createdAt,value
2023-05-03T00:02:10.433Z,93.90
2023-05-03T00:04:37.549Z,94.30
2023-05-03T00:07:04.761Z,94.10
2023-05-03T00:09:33.434Z,94.10
2023-05-03T00:12:01.259Z,94.30
2023-05-03T00:14:28.554Z,94.60
2023-05-03T00:16:55.736Z,94.20
2023-05-03T00:19:31.568Z,94.90
2023-05-03T00:21:59.543Z,94.30
2023-05-03T00:24:27.160Z,94.50
2023-05-03T00:26:53.977Z,94.90
2023-05-03T00:29:22.883Z,95.40
2023-05-03T00:31:49.724Z,94.90
2023-05-03T00:34:16.645Z,94.90
2023-05-03T00:36:43.391Z,94.60
2023-05-03T00:39:10.648Z,94.70
2023-05-03T00:41:38.905Z,95.40
2023-05-03T00:44:06.012Z,95.50
2023-05-03T00:46:32.752Z,95.00
2023-05-03T00:48:59.432Z,95.30
2023-05-03T00:51:28.012Z,95.70
2023-05-03T00:53:55.057Z,96.20
2023-05-03T00:56:23.579Z,95.60
2023-05-03T00:58:53.509Z,95.90
2023-05-03T01:01:20.359Z,96.20
2023-05-03T01:03:48.198Z,95.70
2023-05-03T01:39:22.988Z,97.90
2023-05-03T01:41:51.719Z,97.70
2023-05-03T01:44:19.475Z,98.20
2023-05-03T01:46:47.104Z,98.30
2023-05-03T01:49:13.965Z,98.30
2023-05-03T01:51:40.770Z,97.90
2023-05-03T01:54:07.812Z,97.70
2023-05-03T01:56:36.658Z,97.60
2023-05-03T01:59:04.098Z,97.70
2023-05-03T02:01:31.035Z,97.40
2023-05-03T02:03:57.840Z,97.40
2023-05-03T02:06:26.148Z,97.60
2023-05-03T02:08:54.424Z,97.90
2023-05-03T02:11:21.729Z,98.00
2023-05-03T02:13:50.708Z,98.60
2023-05-03T02:16:20.982Z,98.70
2023-05-03T02:18:48.452Z,99.30
2023-05-03T02:21:15.378Z,99.70
2023-05-03T02:23:42.132Z,99.60
2023-05-03T02:26:08.828Z,99.80
2023-05-03T02:28:35.828Z,99.90
2023-05-03T02:31:02.862Z,99.90
2023-05-03T02:33:29.702Z,99.90
2023-05-03T02:35:56.581Z,99.90
2023-05-03T02:38:23.842Z,99.90
2023-05-03T02:40:50.828Z,99.90
2023-05-03T02:43:17.611Z,99.90
2023-05-03T02:45:44.622Z,99.90
2023-05-03T02:48:11.370Z,99.90
2023-05-03T02:50:39.307Z,99.90
2023-05-03T02:53:06.133Z,99.90
2023-05-03T02:55:32.952Z,99.90
2023-05-03T02:58:00.123Z,99.90
2023-05-03T03:00:27.045Z,99.90
2023-05-03T03:02:53.907Z,99.90
2023-05-03T03:05:20.968Z,99.90
2023-05-03T03:07:47.775Z,99.90
2023-05-03T03:10:14.662Z,99.90
2023-05-03T03:12:41.505Z,99.90
2023-05-03T03:15:09.133Z,99.90
2023-05-03T03:17:39.377Z,99.90
2023-05-03T03:20:07.905Z,99.90
2023-05-03T03:22:34.836Z,99.90
2023-05-03T03:25:01.679Z,99.90
2023-05-03T03:27:28.675Z,99.90
2023-05-03T03:29:55.498Z,99.90
2023-05-03T03:32:22.752Z,99.90
2023-05-03T03:34:49.702Z,99.90
2023-05-03T03:37:16.673Z,99.90
2023-05-03T03:39:43.517Z,99.90
2023-05-03T03:42:13.201Z,99.90
2023-05-03T03:44:40.111Z,99.90
2023-05-03T03:47:07.257Z,99.90
2023-05-03T03:49:34.093Z,99.90
2023-05-03T03:52:00.951Z,99.90
2023-05-03T03:54:27.823Z,99.90
2023-05-03T03:56:54.663Z,99.90
2023-05-03T03:59:21.434Z,99.90
2023-05-03T04:01:48.169Z,99.90
2023-05-03T04:04:15.037Z,99.90
2023-05-03T04:06:42.007Z,99.90
2023-05-03T04:09:09.205Z,99.90
2023-05-03T04:11:36.113Z,99.90
2023-05-03T04:14:03.684Z,99.90
2023-05-03T04:16:30.542Z,99.90
2023-05-03T04:18:57.375Z,99.90
2023-05-03T04:21:24.355Z,99.90
2023-05-03T04:23:51.169Z,99.90
2023-05-03T04:26:30.735Z,99.90
2023-05-03T04:28:59.230Z,99.90
2023-05-03T04:31:27.076Z,99.90
2023-05-03T04:33:53.944Z,99.90
2023-05-03T04:36:25.580Z,99.90
2023-05-03T04:38:52.636Z,99.90
2023-05-03T04:41:19.400Z,99.90
2023-05-03T04:43:46.357Z,99.90
2023-05-03T04:46:13.142Z,99.90
2023-05-03T04:48:40.394Z,99.90
2023-05-03T04:51:07.728Z,99.90
2023-05-03T04:53:34.650Z,99.90
2023-05-03T04:56:01.442Z,99.90
2023-05-03T04:58:28.370Z,99.90
2023-05-03T05:00:55.568Z,99.90
2023-05-03T05:03:22.457Z,99.90
2023-05-03T05:05:49.380Z,99.90
2023-05-03T05:08:16.250Z,99.90
2023-05-03T05:10:43.481Z,99.90
2023-05-03T05:13:13.468Z,99.90
2023-05-03T05:15:40.222Z,99.90
2023-05-03T05:18:07.299Z,99.90
2023-05-03T05:20:34.351Z,99.90
2023-05-03T05:23:01.299Z,99.90
2023-05-03T05:25:28.121Z,99.90
2023-05-03T05:27:54.905Z,99.90
2023-05-03T05:30:23.452Z,99.90
2023-05-03T05:32:50.452Z,99.90
2023-05-03T05:35:19.118Z,99.90
2023-05-03T05:37:46.446Z,99.90
2023-05-03T05:40:13.557Z,99.90
2023-05-03T05:42:40.490Z,99.90
2023-05-03T05:45:08.403Z,99.90
2023-05-03T05:47:35.718Z,99.90
2023-05-03T05:50:09.731Z,99.90
2023-05-03T05:52:42.344Z,99.90
2023-05-03T05:55:10.909Z,99.90
2023-05-03T05:57:38.218Z,99.90
2023-05-03T06:00:14.251Z,99.90
2023-05-03T06:02:42.254Z,99.80
2023-05-03T06:05:10.073Z,99.50
2023-05-03T06:07:37.197Z,99.30
2023-05-03T06:10:04.969Z,99.20
2023-05-03T06:12:31.947Z,99.40
2023-05-03T06:15:02.735Z,99.30
2023-05-03T06:17:29.982Z,98.40
2023-05-03T06:19:57.894Z,97.60
2023-05-03T06:22:25.332Z,96.90
2023-05-03T06:24:52.817Z,96.90
2023-05-03T06:27:19.730Z,96.40
2023-05-03T06:29:48.060Z,96.20
2023-05-03T06:32:14.817Z,96.40
2023-05-03T06:34:41.569Z,96.40
2023-05-03T06:37:08.407Z,97.00
2023-05-03T06:39:35.169Z,96.40
2023-05-03T06:42:02.683Z,96.40
2023-05-03T06:44:29.473Z,96.10
2023-05-03T06:46:56.340Z,96.20
2023-05-03T06:49:23.133Z,95.80
2023-05-03T06:51:49.927Z,95.40
2023-05-03T06:54:16.724Z,95.60
2023-05-03T06:56:43.487Z,95.20
2023-05-03T06:59:10.645Z,95.40
2023-05-03T07:01:37.573Z,95.00
2023-05-03T07:04:04.497Z,94.60
2023-05-03T07:06:37.784Z,94.70
2023-05-03T07:09:11.562Z,94.70
2023-05-03T07:11:40.305Z,94.80
2023-05-03T07:14:07.249Z,94.70
2023-05-03T07:16:34.116Z,94.80
2023-05-03T07:19:01.041Z,93.90
2023-05-03T07:21:29.299Z,92.90
2023-05-03T07:23:56.013Z,93.20
2023-05-03T07:26:22.916Z,93.80
2023-05-03T07:28:50.279Z,93.60
2023-05-03T07:31:17.061Z,93.40
2023-05-03T07:33:44.225Z,93.50
2023-05-03T07:36:12.077Z,93.20
2023-05-03T07:38:38.877Z,93.00
2023-05-03T07:41:06.811Z,93.20
2023-05-03T07:43:33.748Z,92.20
2023-05-03T07:46:00.579Z,91.80
2023-05-03T07:48:27.455Z,91.40
2023-05-03T07:50:54.435Z,91.20
2023-05-03T07:53:21.680Z,91.40
2023-05-03T07:55:48.460Z,91.10
2023-05-03T07:58:15.227Z,91.30
2023-05-03T08:00:42.692Z,91.30
2023-05-03T08:03:09.661Z,90.80
2023-05-03T08:05:36.753Z,91.30
2023-05-03T08:08:06.648Z,90.90
2023-05-03T08:10:37.738Z,90.80
2023-05-03T08:13:06.300Z,90.10
2023-05-03T08:15:33.850Z,90.80
2023-05-03T08:18:01.104Z,90.20
2023-05-03T08:20:28.020Z,89.40
2023-05-03T08:22:56.878Z,89.10
2023-05-03T08:25:26.180Z,89.30
2023-05-03T08:27:53.271Z,89.70
2023-05-03T08:30:22.017Z,88.20
2023-05-03T08:32:49.029Z,86.90
2023-05-03T08:35:15.876Z,86.90
2023-05-03T08:37:43.459Z,86.50
2023-05-03T08:40:13.792Z,87.90
2023-05-03T08:42:45.190Z,87.40
2023-05-03T08:45:16.353Z,86.40
2023-05-03T08:47:47.266Z,86.30
2023-05-03T08:50:15.510Z,85.40
2023-05-03T08:52:43.411Z,84.50
2023-05-03T08:55:11.659Z,84.50
2023-05-03T08:57:38.446Z,83.40
2023-05-03T09:00:10.628Z,83.40
2023-05-03T09:02:40.874Z,83.30
2023-05-03T09:33:56.114Z,68.50
2023-05-03T09:36:27.725Z,67.80
2023-05-03T09:39:32.405Z,66.60
2023-05-03T09:42:00.417Z,66.70
2023-05-03T09:44:51.429Z,65.70
2023-05-03T09:47:25.911Z,65.50
2023-05-03T09:49:52.968Z,64.30
2023-05-03T09:52:21.914Z,64.20
2023-05-03T09:54:50.188Z,63.30
2023-05-03T09:57:17.508Z,63.40
2023-05-03T09:59:46.042Z,62.70
2023-05-03T10:02:12.945Z,62.70
2023-05-03T10:04:51.767Z,62.90
2023-05-03T10:07:22.118Z,62.10
2023-05-03T10:09:49.286Z,61.90
2023-05-03T10:12:19.021Z,61.70
2023-05-03T10:14:48.263Z,61.30
2023-05-03T10:17:46.317Z,60.50
2023-05-03T10:20:23.280Z,59.80
2023-05-03T10:23:05.725Z,60.00
2023-05-03T10:25:34.720Z,60.00
2023-05-03T10:28:09.222Z,58.90
2023-05-03T10:30:40.703Z,59.80
2023-05-03T10:33:10.250Z,59.10
2023-05-03T10:35:39.771Z,58.70
2023-05-03T10:38:22.360Z,59.00
2023-05-03T10:40:49.201Z,59.00
2023-05-03T10:43:31.717Z,58.90
2023-05-03T10:46:05.550Z,58.10
2023-05-03T10:48:34.083Z,57.20
2023-05-03T10:51:30.699Z,58.40
2023-05-03T10:53:57.584Z,57.50
2023-05-03T10:56:24.564Z,58.20
2023-05-03T10:58:56.039Z,57.60
2023-05-03T11:01:24.972Z,56.70
2023-05-03T11:03:51.749Z,56.90
2023-05-03T11:06:41.364Z,56.70
2023-05-03T11:09:10.395Z,56.60
2023-05-03T11:11:40.365Z,57.20
2023-05-03T11:14:08.782Z,56.70
2023-05-03T11:16:47.122Z,56.20
2023-05-03T11:19:15.153Z,56.20
2023-05-03T11:21:43.490Z,56.90
2023-05-03T11:24:10.512Z,60.10
2023-05-03T11:26:38.547Z,58.60
2023-05-03T11:29:05.950Z,57.30
2023-05-03T11:31:33.145Z,56.70
2023-05-03T11:34:00.148Z,57.70
2023-05-03T11:36:27.996Z,55.40
2023-05-03T11:38:54.968Z,55.30
2023-05-03T11:41:21.907Z,56.00
2023-05-03T11:43:57.484Z,55.90
2023-05-03T11:46:35.327Z,55.20
2023-05-03T11:49:06.281Z,52.70
2023-05-03T11:51:33.400Z,52.40
2023-05-03T11:54:13.503Z,53.50
2023-05-03T11:56:57.881Z,53.70
2023-05-03T11:59:44.642Z,54.40
2023-05-03T12:02:13.277Z,54.20
2023-05-03T12:04:43.537Z,53.60
2023-05-03T12:07:13.143Z,54.80
2023-05-03T12:09:42.080Z,53.00
2023-05-03T12:14:59.340Z,53.00
2023-05-03T12:17:43.565Z,52.70
2023-05-03T12:20:51.808Z,53.00
2023-05-03T12:23:11.736Z,53.70
2023-05-03T12:25:43.889Z,53.50
2023-05-03T12:30:41.297Z,53.10
2023-05-03T12:33:10.030Z,52.10
2023-05-03T12:35:41.030Z,51.80
2023-05-03T12:38:09.872Z,51.60
2023-05-03T12:40:39.119Z,49.90
2023-05-03T12:43:06.748Z,50.30
2023-05-03T12:45:34.568Z,50.40
2023-05-03T12:48:02.772Z,50.00
2023-05-03T12:50:32.060Z,50.00
2023-05-03T12:53:02.400Z,49.70
2023-05-03T12:55:35.184Z,48.30
2023-05-03T12:58:36.826Z,49.30
2023-05-03T13:01:37.107Z,49.30
2023-05-03T13:03:43.361Z,48.40
2023-05-03T13:06:13.869Z,51.80
2023-05-03T13:08:49.404Z,49.50
2023-05-03T13:11:19.408Z,49.40
2023-05-03T13:13:46.646Z,50.20
2023-05-03T13:16:14.437Z,53.00
2023-05-03T13:18:43.015Z,50.00
2023-05-03T13:21:11.172Z,49.40
2023-05-03T13:23:38.351Z,49.30
2023-05-03T13:26:07.047Z,49.20
2023-05-03T13:28:34.113Z,49.20
2023-05-03T13:31:00.878Z,50.10
2023-05-03T13:33:28.625Z,49.80
2023-05-03T13:35:55.665Z,50.00
2023-05-03T13:38:22.455Z,49.70
2023-05-03T13:40:49.287Z,45.70
2023-05-03T13:43:16.156Z,47.40
2023-05-03T13:45:43.089Z,47.10
2023-05-03T13:48:18.317Z,47.70
2023-05-03T13:50:45.710Z,48.10
2023-05-03T13:53:12.695Z,49.10
2023-05-03T13:55:39.489Z,48.10
2023-05-03T13:58:06.194Z,48.00
2023-05-03T14:00:33.032Z,48.10
2023-05-03T14:02:59.833Z,46.50
2023-05-03T14:05:27.236Z,47.10
2023-05-03T14:07:54.228Z,47.00
2023-05-03T14:10:21.111Z,47.70
2023-05-03T14:12:48.142Z,47.70
2023-05-03T14:15:15.044Z,47.80
2023-05-03T14:17:43.900Z,47.10
2023-05-03T14:20:12.095Z,46.10
2023-05-03T14:22:38.953Z,46.80
2023-05-03T14:25:06.750Z,46.90
2023-05-03T14:27:33.737Z,47.60
2023-05-03T14:30:00.677Z,46.80
2023-05-03T14:32:27.875Z,46.10
2023-05-03T14:34:54.568Z,45.80
2023-05-03T14:37:21.443Z,45.80
2023-05-03T14:39:48.374Z,46.10
2023-05-03T14:42:15.423Z,45.80
2023-05-03T14:44:42.221Z,45.60
2023-05-03T14:47:10.326Z,46.40
2023-05-03T14:49:41.017Z,46.60
2023-05-03T14:52:08.860Z,45.50
2023-05-03T14:54:37.260Z,46.50
2023-05-03T14:57:04.810Z,45.40
2023-05-03T14:59:33.254Z,45.80
2023-05-03T15:02:00.858Z,45.90
2023-05-03T15:04:28.399Z,47.00
2023-05-03T15:06:55.571Z,46.10
2023-05-03T15:09:22.885Z,46.20
2023-05-03T15:11:49.740Z,44.00
2023-05-03T15:14:17.545Z,44.80
2023-05-03T15:16:44.577Z,45.70
2023-05-03T15:19:11.433Z,45.40
2023-05-03T15:21:49.409Z,44.50
2023-05-03T15:24:17.530Z,44.70
2023-05-03T15:26:44.541Z,45.10
2023-05-03T15:29:11.558Z,44.90
2023-05-03T15:31:38.479Z,46.10
2023-05-03T15:34:06.073Z,45.30
2023-05-03T15:36:33.431Z,45.70
2023-05-03T15:39:00.185Z,45.80
2023-05-03T15:41:27.053Z,45.40
2023-05-03T15:43:54.848Z,45.50
2023-05-03T15:46:21.960Z,45.70
2023-05-03T15:48:48.766Z,45.70
2023-05-03T15:51:15.710Z,45.30
2023-05-03T15:53:42.612Z,46.30
2023-05-03T15:56:09.415Z,45.60
2023-05-03T15:58:36.669Z,45.50
2023-05-03T16:01:04.177Z,45.40
2023-05-03T16:03:31.633Z,45.00
2023-05-03T16:05:58.668Z,45.30
2023-05-03T16:08:26.351Z,45.20
2023-05-03T16:10:53.193Z,45.60
2023-05-03T16:13:19.959Z,44.80
2023-05-03T16:15:47.344Z,45.40
2023-05-03T16:18:14.206Z,45.30
2023-05-03T16:20:41.365Z,45.00
2023-05-03T16:23:08.185Z,45.50
2023-05-03T16:25:34.899Z,46.10
2023-05-03T16:28:02.749Z,45.60
2023-05-03T16:30:29.737Z,45.40
2023-05-03T16:32:56.582Z,45.20
2023-05-03T16:35:23.401Z,45.40
2023-05-03T16:37:51.290Z,45.60
2023-05-03T16:40:18.155Z,45.80
2023-05-03T16:42:44.984Z,45.30
2023-05-03T16:45:12.255Z,46.20
2023-05-03T16:47:39.594Z,45.80
2023-05-03T16:50:08.137Z,46.10
2023-05-03T16:52:39.393Z,45.90
2023-05-03T16:55:07.728Z,45.50
2023-05-03T16:57:34.534Z,45.80
2023-05-03T17:00:08.495Z,45.70
2023-05-03T17:02:36.944Z,46.20
2023-05-03T17:05:12.951Z,46.40
2023-05-03T17:07:41.850Z,46.50
2023-05-03T17:10:09.197Z,46.40
2023-05-03T17:12:36.091Z,46.10
2023-05-03T17:15:03.086Z,46.30
2023-05-03T17:17:32.378Z,46.80
2023-05-03T17:19:59.638Z,46.40
2023-05-03T17:22:26.470Z,46.80
2023-05-03T17:24:55.237Z,47.00
2023-05-03T17:27:22.104Z,46.70
2023-05-03T17:29:49.206Z,46.80
2023-05-03T17:32:16.041Z,47.30
2023-05-03T17:34:42.863Z,47.70
2023-05-03T17:37:09.563Z,47.20
2023-05-03T17:39:36.262Z,48.00
2023-05-03T17:42:03.843Z,47.70
2023-05-03T17:44:30.992Z,47.70
2023-05-03T17:46:57.794Z,47.90
2023-05-03T17:49:24.860Z,48.60
2023-05-03T17:51:51.668Z,48.90
2023-05-03T17:54:18.394Z,48.70
2023-05-03T17:56:45.469Z,49.30
2023-05-03T17:59:12.174Z,49.20
2023-05-03T18:01:38.910Z,49.00
2023-05-03T18:04:05.835Z,49.40
2023-05-03T18:06:33.113Z,49.70
2023-05-03T18:08:59.953Z,50.50
2023-05-03T18:11:26.632Z,49.90
2023-05-03T18:13:53.371Z,50.40
2023-05-03T18:16:20.241Z,51.20
2023-05-03T18:18:47.291Z,50.50
2023-05-03T18:21:14.331Z,51.70
2023-05-03T18:23:42.449Z,51.80
2023-05-03T18:26:10.580Z,52.00
2023-05-03T18:28:37.679Z,52.70
2023-05-03T18:31:04.655Z,52.60
2023-05-03T18:33:32.875Z,52.50
2023-05-03T18:35:59.664Z,53.20
2023-05-03T18:38:26.899Z,52.70
2023-05-03T18:40:55.845Z,53.90
2023-05-03T18:43:22.865Z,54.40
2023-05-03T18:45:49.852Z,54.20
2023-05-03T18:48:17.088Z,54.70
2023-05-03T18:50:44.161Z,54.60
2023-05-03T18:53:11.320Z,54.80
2023-05-03T18:55:38.311Z,55.30
2023-05-03T18:58:05.634Z,55.40
2023-05-03T19:00:32.492Z,55.10
2023-05-03T19:02:59.356Z,55.30
2023-05-03T19:05:26.203Z,55.80
2023-05-03T19:07:52.898Z,56.00
2023-05-03T19:10:20.916Z,56.00
2023-05-03T19:12:47.734Z,56.40
2023-05-03T19:15:15.099Z,57.00
2023-05-03T19:17:42.182Z,57.10
2023-05-03T19:20:10.316Z,57.50
2023-05-03T19:22:37.459Z,58.20
2023-05-03T19:25:05.403Z,57.80
2023-05-03T19:27:32.791Z,57.40
2023-05-03T19:29:59.661Z,57.70
2023-05-03T19:32:26.522Z,57.60
2023-05-03T19:34:53.336Z,58.10
2023-05-03T19:37:20.174Z,59.10
2023-05-03T19:39:47.057Z,58.20
2023-05-03T19:42:13.854Z,59.00
2023-05-03T19:44:40.640Z,59.20
2023-05-03T19:47:07.420Z,59.70
2023-05-03T19:49:34.245Z,59.40
2023-05-03T19:52:02.070Z,60.10
2023-05-03T19:54:29.834Z,60.10
2023-05-03T19:56:56.708Z,61.10
2023-05-03T19:59:23.492Z,60.80
2023-05-03T20:01:50.484Z,60.80
2023-05-03T20:04:17.575Z,60.60
2023-05-03T20:06:44.465Z,61.10
2023-05-03T20:09:11.315Z,60.80
2023-05-03T20:11:38.509Z,60.80
2023-05-03T20:14:05.375Z,61.30
2023-05-03T20:16:37.298Z,61.00
2023-05-03T20:19:07.295Z,60.60
2023-05-03T20:21:34.157Z,60.80
2023-05-03T20:24:01.346Z,60.30
2023-05-03T20:26:28.165Z,59.40
2023-05-03T20:28:54.869Z,59.80
2023-05-03T20:31:21.687Z,59.30
2023-05-03T20:33:48.529Z,59.00
2023-05-03T20:36:15.375Z,59.00
2023-05-03T20:38:42.272Z,59.50
2023-05-03T20:41:09.384Z,59.80
2023-05-03T20:43:36.146Z,60.00
2023-05-03T20:46:03.035Z,59.80
2023-05-03T20:48:29.927Z,60.30
2023-05-03T20:50:58.813Z,60.30
2023-05-03T20:53:25.640Z,60.70
2023-05-03T20:56:00.809Z,60.50
2023-05-03T20:58:27.936Z,61.00
2023-05-03T21:00:58.012Z,61.30
2023-05-03T21:03:25.854Z,61.20
2023-05-03T21:05:53.621Z,61.40
2023-05-03T21:08:20.705Z,61.60
2023-05-03T21:10:47.551Z,61.70
2023-05-03T21:13:14.543Z,61.80
2023-05-03T21:15:42.495Z,62.10
2023-05-03T21:18:10.508Z,62.60
2023-05-03T21:20:37.828Z,62.90
2023-05-03T21:23:05.197Z,63.20
2023-05-03T21:25:31.981Z,63.90
2023-05-03T21:27:58.860Z,63.70
2023-05-03T21:30:25.700Z,64.20
2023-05-03T21:32:52.499Z,63.50
2023-05-03T21:35:20.465Z,64.70
2023-05-03T21:37:48.141Z,64.20
2023-05-03T21:40:15.774Z,64.70
2023-05-03T21:42:43.363Z,65.90
2023-05-03T21:45:12.005Z,65.90
2023-05-03T21:47:38.965Z,65.90
2023-05-03T21:50:06.825Z,66.00
2023-05-03T21:52:34.130Z,66.40
2023-05-03T21:55:01.172Z,67.00
2023-05-03T21:57:28.057Z,67.00
2023-05-03T21:59:58.319Z,67.70
2023-05-03T22:02:25.446Z,67.80
2023-05-03T22:04:52.992Z,68.30
2023-05-03T22:07:19.840Z,68.50
2023-05-03T22:09:47.470Z,68.60
2023-05-03T22:14:45.315Z,69.00
2023-05-03T22:17:12.030Z,69.40
2023-05-03T22:19:38.987Z,69.60
2023-05-03T22:22:05.733Z,70.50
2023-05-03T22:24:32.581Z,70.50
2023-05-03T22:26:59.851Z,71.60
2023-05-03T22:29:26.900Z,71.60
2023-05-03T22:31:53.904Z,72.10
2023-05-03T22:34:21.183Z,74.70
2023-05-03T22:36:47.995Z,71.20
2023-05-03T22:39:15.814Z,71.90
2023-05-03T22:41:42.684Z,72.50
2023-05-03T22:44:09.429Z,72.40
2023-05-03T22:46:36.288Z,72.60
2023-05-03T22:49:03.237Z,73.30
2023-05-03T22:51:30.070Z,73.90
2023-05-03T22:53:56.828Z,74.60
2023-05-03T22:56:24.046Z,75.50
2023-05-03T22:58:50.878Z,75.50
2023-05-03T23:01:18.157Z,76.40
2023-05-03T23:03:45.097Z,76.40
2023-05-03T23:06:11.959Z,76.70
2023-05-03T23:08:38.883Z,77.30
2023-05-03T23:11:05.912Z,77.20
2023-05-03T23:13:32.672Z,78.10
2023-05-03T23:15:59.852Z,78.60
2023-05-03T23:18:27.085Z,78.40
2023-05-03T23:20:53.815Z,78.40
2023-05-03T23:23:20.616Z,79.40
2023-05-03T23:25:47.470Z,81.00
2023-05-03T23:28:14.277Z,80.60
2023-05-03T23:30:45.383Z,81.10
